Time;durP1;ratioP1;P1;durP2;ratioP2;P2;SDS_P1;SDS_P2;PMS_P1;PMS_P2;Temp;Humidity;BMP_temperature;BMP_pressure;BME280_temperature;BME280_humidity;BME280_pressure;Samples;Min_cycle;Max_cycle;Signal;HPM_P1;HPM_P2
2023/12/23 00:01:18;;;;;;;1.50;1.40;;;;;;;5.65;nan;60411.56;4993024;28;20597;-64
2023/12/23 00:03:43;;;;;;;1.20;1.20;;;;;;;5.62;nan;60434.09;4993646;28;20767;-63
2023/12/23 00:06:09;;;;;;;1.50;1.40;;;;;;;5.56;nan;60447.06;4993170;28;20177;-64
2023/12/23 00:08:35;;;;;;;1.30;1.30;;;;;;;5.57;nan;60465.91;4992839;28;20323;-64
2023/12/23 00:11:00;;;;;;;1.20;1.20;;;;;;;5.44;nan;60426.00;4993233;28;20255;-64
2023/12/23 00:13:25;;;;;;;1.17;1.17;;;;;;;5.11;nan;60397.72;4992839;28;20183;-62
2023/12/23 00:15:51;;;;;;;1.20;1.20;;;;;;;5.06;nan;60409.28;4992463;28;20207;-64
2023/12/23 00:18:16;;;;;;;1.27;1.27;;;;;;;5.24;nan;60472.50;4993354;28;20211;-64
2023/12/23 00:20:41;;;;;;;1.17;1.17;;;;;;;5.05;nan;60380.88;4992976;28;20635;-63
2023/12/23 00:23:07;;;;;;;1.20;1.20;;;;;;;4.80;nan;60381.28;4992633;28;20180;-62
2023/12/23 00:25:32;;;;;;;1.70;1.57;;;;;;;5.02;nan;60419.97;4992616;28;20679;-64
2023/12/23 00:27:58;;;;;;;1.37;1.33;;;;;;;4.72;nan;60366.66;4992664;28;20201;-63
2023/12/23 00:30:23;;;;;;;1.60;1.50;;;;;;;4.72;nan;60313.56;4992327;28;20221;-63
2023/12/23 00:32:50;;;;;;;1.50;1.40;;;;;;;4.89;nan;60385.72;4993003;28;20176;-64
2023/12/23 00:35:16;;;;;;;1.50;1.40;;;;;;;4.96;nan;60380.91;4992589;28;20235;-64
2023/12/23 00:37:41;;;;;;;1.20;1.20;;;;;;;4.76;nan;60364.13;4992718;28;20172;-65
2023/12/23 00:40:07;;;;;;;1.17;1.17;;;;;;;4.69;nan;60360.78;4992400;28;20180;-63
2023/12/23 00:42:33;;;;;;;1.40;1.40;;;;;;;5.10;nan;60409.25;4992406;28;20616;-63
2023/12/23 00:44:58;;;;;;;1.30;1.30;;;;;;;5.01;nan;60394.13;4992219;28;20177;-65
2023/12/23 00:47:23;;;;;;;1.30;1.30;;;;;;;4.87;nan;60350.59;4992622;28;20236;-64
2023/12/23 00:49:49;;;;;;;1.30;1.23;;;;;;;4.79;nan;60364.41;4992232;28;20655;-65
2023/12/23 00:52:14;;;;;;;1.20;1.20;;;;;;;4.51;nan;60336.13;4991961;28;20177;-65
2023/12/23 00:54:39;;;;;;;1.20;1.20;;;;;;;4.76;nan;60383.81;4992390;28;20180;-64
2023/12/23 00:57:05;;;;;;;1.30;1.30;;;;;;;4.70;nan;60399.84;4991895;28;20191;-63
2023/12/23 00:59:31;;;;;;;1.10;1.10;;;;;;;4.38;nan;60354.44;4991884;28;20551;-62
2023/12/23 01:01:56;;;;;;;1.67;1.57;;;;;;;4.15;nan;60285.72;4991873;28;20535;-64
2023/12/23 01:04:22;;;;;;;1.20;1.20;;;;;;;4.45;nan;60342.59;4992010;28;20680;-62
2023/12/23 01:06:47;;;;;;;1.30;1.30;;;;;;;4.43;nan;60342.34;4992018;28;20281;-64
2023/12/23 01:09:13;;;;;;;1.47;1.37;;;;;;;4.28;nan;60364.00;4992112;28;20176;-64
2023/12/23 01:11:39;;;;;;;1.40;1.30;;;;;;;4.05;nan;60264.97;4991773;28;20184;-64
2023/12/23 01:14:04;;;;;;;1.20;1.20;;;;;;;3.99;nan;60273.41;4991575;28;20169;-62
2023/12/23 01:16:30;;;;;;;1.30;1.30;;;;;;;3.74;nan;60306.59;4992208;28;20168;-62
2023/12/23 01:18:55;;;;;;;1.70;1.60;;;;;;;3.75;nan;60290.03;4991865;28;20608;-62
2023/12/23 01:21:21;;;;;;;1.10;1.10;;;;;;;3.68;nan;60281.66;4991928;28;20716;-63
2023/12/23 01:23:46;;;;;;;1.20;1.20;;;;;;;3.95;nan;60291.66;4991548;28;20169;-62
2023/12/23 01:26:12;;;;;;;1.10;1.10;;;;;;;3.80;nan;60302.66;4991718;28;20188;-65
2023/12/23 01:28:37;;;;;;;1.30;1.30;;;;;;;3.79;nan;60309.13;4992060;28;20204;-64
2023/12/23 01:31:04;;;;;;;1.00;1.00;;;;;;;3.87;nan;60275.16;4991465;28;20228;-63
2023/12/23 01:33:30;;;;;;;1.00;1.00;;;;;;;3.87;nan;60260.00;4992138;28;20212;-62
2023/12/23 01:35:55;;;;;;;1.20;1.20;;;;;;;3.90;nan;60437.63;4991540;28;20571;-63
2023/12/23 01:38:21;;;;;;;1.10;1.10;;;;;;;3.95;nan;60279.59;4991622;28;20181;-63
2023/12/23 01:40:48;;;;;;;1.00;1.00;;;;;;;4.03;nan;60313.25;4991415;28;20204;-63
2023/12/23 01:43:13;;;;;;;1.40;1.30;;;;;;;4.01;nan;60323.66;4991277;28;20187;-63
2023/12/23 01:45:39;;;;;;;1.30;1.30;;;;;;;3.97;nan;60306.53;4991719;28;20722;-64
2023/12/23 01:48:06;;;;;;;1.50;1.40;;;;;;;3.92;nan;60288.88;4991514;28;20208;-64
2023/12/23 01:50:32;;;;;;;1.00;1.00;;;;;;;3.66;nan;60257.25;4991461;28;20176;-63
2023/12/23 01:52:58;;;;;;;1.37;1.30;;;;;;;3.93;nan;60322.28;4991475;28;20173;-66
2023/12/23 01:55:28;;;;;;;1.60;1.50;;;;;;;4.02;nan;60298.97;4991660;28;20187;-63
2023/12/23 01:57:54;;;;;;;1.40;1.30;;;;;;;3.84;nan;60284.97;4991304;28;20168;-64
2023/12/23 02:00:22;;;;;;;1.20;1.20;;;;;;;4.09;nan;60307.34;4991656;28;20172;-62
2023/12/23 02:02:47;;;;;;;1.53;1.43;;;;;;;3.74;nan;60258.63;4993794;28;20183;-64
2023/12/23 02:05:13;;;;;;;1.53;1.43;;;;;;;3.83;nan;60261.13;4995468;28;20259;-64
2023/12/23 02:07:39;;;;;;;1.23;1.23;;;;;;;3.97;nan;60276.78;4995388;28;20296;-63
2023/12/23 02:10:06;;;;;;;1.00;1.00;;;;;;;4.11;nan;60336.81;4995062;28;20173;-62
2023/12/23 02:12:44;;;;;;;1.60;1.50;;;;;;;3.82;nan;60279.66;4995042;28;20179;-64
2023/12/23 02:15:14;;;;;;;1.47;1.37;;;;;;;3.97;nan;60297.00;4995543;28;20248;-64
2023/12/23 02:17:39;;;;;;;1.20;1.20;;;;;;;3.85;nan;60291.13;4994995;28;20264;-63
2023/12/23 02:20:06;;;;;;;1.17;1.17;;;;;;;3.73;nan;60419.09;4995389;28;20365;-65
2023/12/23 02:22:31;;;;;;;1.37;1.30;;;;;;;3.79;nan;60301.53;4995022;28;20636;-63
2023/12/23 02:24:56;;;;;;;1.17;1.17;;;;;;;3.98;nan;60307.66;4994620;28;20169;-62
2023/12/23 02:27:30;;;;;;;1.40;1.30;;;;;;;3.77;nan;60269.00;4994877;28;20204;-64
2023/12/23 02:29:58;;;;;;;1.17;1.17;;;;;;;3.85;nan;60263.34;4995236;28;20655;-63
2023/12/23 02:32:25;;;;;;;1.40;1.33;;;;;;;3.98;nan;60466.78;4994828;28;20691;-63
2023/12/23 02:34:51;;;;;;;1.10;1.10;;;;;;;4.09;nan;60334.56;4994980;28;20180;-63
2023/12/23 02:37:17;;;;;;;1.20;1.20;;;;;;;3.89;nan;60307.69;4994555;28;20188;-64
2023/12/23 02:39:42;;;;;;;1.40;1.30;;;;;;;4.06;nan;60280.69;4994704;28;20177;-65
2023/12/23 02:42:07;;;;;;;1.20;1.20;;;;;;;4.08;nan;60272.81;4994629;28;20671;-63
2023/12/23 02:44:33;;;;;;;1.20;1.20;;;;;;;3.71;nan;60290.03;4995072;28;20176;-62
2023/12/23 02:46:58;;;;;;;1.27;1.27;;;;;;;3.72;nan;60294.25;4994229;28;20196;-65
2023/12/23 02:49:24;;;;;;;1.57;1.47;;;;;;;3.93;nan;60289.97;4994388;28;20535;-65
2023/12/23 02:51:49;;;;;;;1.23;1.23;;;;;;;3.94;nan;60262.75;4994749;28;20260;-65
2023/12/23 02:54:15;;;;;;;1.13;1.13;;;;;;;3.77;nan;60261.41;4994032;28;20800;-66
2023/12/23 02:56:40;;;;;;;1.10;1.10;;;;;;;3.73;nan;60267.03;4995026;28;20255;-63
2023/12/23 02:59:05;;;;;;;1.37;1.37;;;;;;;3.91;nan;60277.66;4994715;28;20161;-64
2023/12/23 03:01:31;;;;;;;1.20;1.20;;;;;;;4.10;nan;60336.25;4994195;28;20204;-63
2023/12/23 03:03:56;;;;;;;1.10;1.10;;;;;;;3.99;nan;60306.25;4994059;28;20196;-63
2023/12/23 03:06:21;;;;;;;0.90;0.90;;;;;;;4.03;nan;60308.19;4994447;28;20177;-63
2023/12/23 03:08:47;;;;;;;1.10;1.10;;;;;;;3.99;nan;60245.63;4993764;28;20761;-63
2023/12/23 03:11:12;;;;;;;1.10;1.10;;;;;;;3.96;nan;60280.16;4994243;28;20248;-64
2023/12/23 03:13:38;;;;;;;1.00;1.00;;;;;;;4.09;nan;60309.88;4993210;28;20172;-64
2023/12/23 03:16:14;;;;;;;1.80;1.70;;;;;;;3.87;nan;60295.91;4994289;28;20172;-64
2023/12/23 03:18:39;;;;;;;1.00;1.00;;;;;;;3.75;nan;60256.66;4994212;28;20238;-63
2023/12/23 03:21:05;;;;;;;1.70;1.60;;;;;;;3.98;nan;60393.53;4993672;28;20596;-64
2023/12/23 03:23:30;;;;;;;1.20;1.20;;;;;;;4.00;nan;60340.78;4994083;28;20258;-65
2023/12/23 03:25:56;;;;;;;2.33;1.47;;;;;;;3.99;nan;60296.72;4993886;28;20165;-64
2023/12/23 03:28:21;;;;;;;1.30;1.30;;;;;;;4.00;nan;60320.00;4993508;28;20209;-65
2023/12/23 03:30:46;;;;;;;1.43;1.33;;;;;;;4.35;nan;60316.22;4992225;28;20228;-61
2023/12/23 03:33:15;;;;;;;1.53;1.43;;;;;;;4.42;nan;60351.91;4993548;28;20169;-64
2023/12/23 03:35:41;;;;;;;1.83;1.73;;;;;;;4.12;nan;60287.41;4993308;28;20562;-64
2023/12/23 03:38:06;;;;;;;1.37;1.33;;;;;;;4.38;nan;60321.56;4993749;28;20173;-65
2023/12/23 03:40:32;;;;;;;1.00;1.00;;;;;;;4.04;nan;60366.88;4993627;28;20268;-63
2023/12/23 03:42:57;;;;;;;1.20;1.20;;;;;;;4.07;nan;60295.00;4993383;28;20177;-64
2023/12/23 03:45:23;;;;;;;1.20;1.20;;;;;;;3.94;nan;60245.09;4993594;28;20203;-65
2023/12/23 03:47:49;;;;;;;1.30;1.20;;;;;;;4.10;nan;60305.94;4993186;28;20193;-63
2023/12/23 03:50:15;;;;;;;1.40;1.30;;;;;;;3.72;nan;60253.84;4993359;28;20223;-63
2023/12/23 03:52:40;;;;;;;1.47;1.37;;;;;;;3.70;nan;60430.34;4990716;28;20286;-63
2023/12/23 03:55:08;;;;;;;1.20;1.20;;;;;;;3.74;nan;60235.34;4978177;28;20675;-64
2023/12/23 03:57:34;;;;;;;1.50;1.40;;;;;;;3.59;nan;60279.16;4985624;28;20181;-63
2023/12/23 03:59:59;;;;;;;1.13;1.13;;;;;;;3.83;nan;60313.59;4983219;28;20552;-63
2023/12/23 04:02:25;;;;;;;1.03;1.03;;;;;;;3.62;nan;60262.31;4985136;28;20208;-63
2023/12/23 04:04:50;;;;;;;1.63;1.53;;;;;;;3.69;nan;60288.38;4984762;28;20188;-63
2023/12/23 04:07:16;;;;;;;1.83;1.40;;;;;;;3.94;nan;60281.00;4983403;28;20696;-65
2023/12/23 04:09:41;;;;;;;1.40;1.40;;;;;;;3.73;nan;60256.94;4985368;28;20247;-64
2023/12/23 04:12:09;;;;;;;1.27;1.27;;;;;;;3.73;nan;60290.34;4983173;28;20269;-63
2023/12/23 04:14:37;;;;;;;1.50;1.40;;;;;;;3.70;nan;60283.91;4980660;28;20224;-62
2023/12/23 04:17:03;;;;;;;2.00;1.83;;;;;;;3.80;nan;60237.00;4987485;28;20224;-63
2023/12/23 04:19:28;;;;;;;1.13;1.13;;;;;;;3.70;nan;60273.78;4998871;28;20220;-62
2023/12/23 04:21:54;;;;;;;1.10;1.10;;;;;;;3.82;nan;60256.91;4982996;28;20267;-63
2023/12/23 04:24:20;;;;;;;1.50;1.40;;;;;;;3.77;nan;60311.91;4991228;28;20184;-63
2023/12/23 04:26:45;;;;;;;1.73;1.20;;;;;;;3.65;nan;60255.56;4993880;28;20605;-61
2023/12/23 04:29:11;;;;;;;1.23;1.23;;;;;;;3.83;nan;60265.63;4989304;28;20185;-63
2023/12/23 04:31:36;;;;;;;1.43;1.37;;;;;;;4.17;nan;60270.81;4984555;28;20232;-61
2023/12/23 04:34:02;;;;;;;1.10;1.10;;;;;;;4.02;nan;60435.94;4980791;28;20185;-63
2023/12/23 04:36:28;;;;;;;1.10;1.10;;;;;;;4.16;nan;60274.22;4979646;28;20185;-63
2023/12/23 04:38:53;;;;;;;1.50;1.40;;;;;;;4.05;nan;60275.06;4986495;28;20188;-63
2023/12/23 04:41:19;;;;;;;1.50;1.40;;;;;;;4.05;nan;60325.59;4986206;28;20243;-64
2023/12/23 04:43:44;;;;;;;1.13;1.13;;;;;;;3.88;nan;60281.88;4984128;28;20204;-63
2023/12/23 04:46:10;;;;;;;1.30;1.30;;;;;;;3.67;nan;60268.47;4982366;28;20193;-64
2023/12/23 04:48:35;;;;;;;1.20;1.20;;;;;;;3.87;nan;60268.13;4979468;28;20224;-65
2023/12/23 04:51:00;;;;;;;1.50;1.40;;;;;;;3.84;nan;60231.38;4983126;28;20601;-64
2023/12/23 04:53:26;;;;;;;1.43;1.37;;;;;;;3.87;nan;60273.19;4984606;28;20287;-64
2023/12/23 04:55:51;;;;;;;1.10;1.10;;;;;;;3.73;nan;60239.84;4988953;28;20199;-63
2023/12/23 04:58:17;;;;;;;1.33;1.27;;;;;;;3.99;nan;60268.34;4983723;28;20624;-62
2023/12/23 05:00:42;;;;;;;1.20;1.20;;;;;;;3.94;nan;60399.16;4986104;28;20643;-62
2023/12/23 05:03:08;;;;;;;1.63;1.53;;;;;;;3.89;nan;60300.09;4986171;28;20681;-63
2023/12/23 05:05:33;;;;;;;1.30;1.30;;;;;;;3.90;nan;60265.88;4984020;28;20581;-62
2023/12/23 05:07:59;;;;;;;1.00;1.00;;;;;;;3.91;nan;60270.06;4978103;28;20208;-64
2023/12/23 05:10:24;;;;;;;1.47;1.40;;;;;;;3.70;nan;60299.59;4982648;28;20207;-62
2023/12/23 05:12:49;;;;;;;1.53;1.43;;;;;;;3.86;nan;60320.03;4988570;28;20199;-64
2023/12/23 05:15:15;;;;;;;1.20;1.20;;;;;;;3.53;nan;60250.25;4988804;28;20676;-64
2023/12/23 05:17:40;;;;;;;1.60;1.50;;;;;;;3.76;nan;60391.59;4985442;28;20184;-65
2023/12/23 05:20:07;;;;;;;1.20;1.20;;;;;;;3.82;nan;60252.44;4980434;28;20284;-63
2023/12/23 05:22:33;;;;;;;2.40;1.27;;;;;;;3.85;nan;60235.56;4982936;28;20192;-64
2023/12/23 05:24:58;;;;;;;1.43;1.37;;;;;;;3.78;nan;60293.41;4987000;28;20184;-63
2023/12/23 05:27:24;;;;;;;1.50;1.40;;;;;;;4.07;nan;60289.41;4988757;28;20394;-63
2023/12/23 05:29:49;;;;;;;1.20;1.20;;;;;;;4.16;nan;60330.34;4988610;28;20312;-63
2023/12/23 05:32:15;;;;;;;1.17;1.17;;;;;;;4.14;nan;60439.28;4987545;28;20228;-64
2023/12/23 05:34:40;;;;;;;1.27;1.27;;;;;;;3.92;nan;60311.06;4985826;28;20652;-64
2023/12/23 05:37:06;;;;;;;1.67;1.57;;;;;;;3.95;nan;60380.06;4986220;28;20605;-63
2023/12/23 05:39:31;;;;;;;1.40;1.37;;;;;;;3.78;nan;60277.69;4990967;28;20555;-64
2023/12/23 05:41:58;;;;;;;1.20;1.20;;;;;;;3.87;nan;60255.50;4992106;28;20623;-64
2023/12/23 05:44:23;;;;;;;2.23;2.07;;;;;;;3.72;nan;60260.88;4991893;28;20734;-64
2023/12/23 05:46:49;;;;;;;1.37;1.27;;;;;;;3.41;nan;60176.84;4992082;28;20271;-65
2023/12/23 05:49:17;;;;;;;1.53;1.43;;;;;;;3.39;nan;60240.22;4991358;28;20562;-65
2023/12/23 05:51:42;;;;;;;1.50;1.40;;;;;;;3.36;nan;60206.03;4992147;28;20188;-64
2023/12/23 05:54:08;;;;;;;1.30;1.30;;;;;;;3.13;nan;60216.16;4990774;28;20177;-64
2023/12/23 05:56:34;;;;;;;1.20;1.20;;;;;;;3.11;nan;60224.00;4991908;28;20495;-64
2023/12/23 05:58:59;;;;;;;1.70;1.60;;;;;;;2.92;nan;60198.28;4991390;28;20172;-62
2023/12/23 06:01:24;;;;;;;1.13;1.13;;;;;;;2.70;nan;60150.44;4991330;28;20177;-65
2023/12/23 06:03:50;;;;;;;1.20;1.20;;;;;;;3.06;nan;60195.72;5006526;28;20589;-65
2023/12/23 06:06:15;;;;;;;1.20;1.20;;;;;;;3.16;nan;60226.53;4991581;28;20181;-63
2023/12/23 06:08:41;;;;;;;1.30;1.30;;;;;;;3.07;nan;60328.00;4991789;28;20212;-64
2023/12/23 06:11:07;;;;;;;1.20;1.20;;;;;;;2.39;nan;60192.50;4991881;28;20263;-65
2023/12/23 06:13:33;;;;;;;1.20;1.20;;;;;;;3.03;nan;60145.00;4989588;28;20311;-64
2023/12/23 06:16:04;;;;;;;1.30;1.30;;;;;;;3.19;nan;60217.81;4977858;28;20284;-62
2023/12/23 06:18:31;;;;;;;1.50;1.40;;;;;;;3.32;nan;60250.06;4990285;28;20728;-64
2023/12/23 06:20:56;;;;;;;1.60;1.50;;;;;;;3.28;nan;60243.06;4991582;28;20188;-65
2023/12/23 06:23:22;;;;;;;1.33;1.30;;;;;;;3.25;nan;60222.03;4991274;28;20180;-65
2023/12/23 06:25:47;;;;;;;1.50;1.40;;;;;;;3.20;nan;60206.34;5000919;28;20189;-62
2023/12/23 06:28:13;;;;;;;1.43;1.40;;;;;;;3.25;nan;60256.78;4979616;28;20208;-62
2023/12/23 06:30:38;;;;;;;1.10;1.10;;;;;;;2.90;nan;60182.88;4988678;28;20601;-64
2023/12/23 06:33:03;;;;;;;1.20;1.20;;;;;;;2.92;nan;60192.66;4980900;28;20271;-64
2023/12/23 06:35:29;;;;;;;1.10;1.10;;;;;;;2.97;nan;60291.56;4991052;28;20325;-64
2023/12/23 06:37:54;;;;;;;1.57;1.50;;;;;;;2.88;nan;60175.59;4991292;28;20667;-64
2023/12/23 06:40:20;;;;;;;1.20;1.20;;;;;;;2.97;nan;60208.91;4990543;28;20189;-64
2023/12/23 06:42:45;;;;;;;1.50;1.40;;;;;;;2.78;nan;60151.81;4985609;28;20704;-65
2023/12/23 06:45:12;;;;;;;2.70;1.60;;;;;;;2.94;nan;60142.53;4989997;28;20184;-66
2023/12/23 06:47:37;;;;;;;1.10;1.10;;;;;;;3.08;nan;60147.53;4989051;28;20217;-63
2023/12/23 06:50:03;;;;;;;1.60;1.50;;;;;;;3.04;nan;60168.28;4989585;28;20230;-64
2023/12/23 06:52:28;;;;;;;1.43;1.37;;;;;;;3.24;nan;60208.28;4994619;28;20192;-67
2023/12/23 06:54:54;;;;;;;1.50;1.40;;;;;;;3.34;nan;60267.41;4994391;28;20208;-66
2023/12/23 06:57:19;;;;;;;1.37;1.33;;;;;;;3.49;nan;60246.34;5009409;28;20290;-64
2023/12/23 06:59:45;;;;;;;2.13;2.03;;;;;;;3.88;nan;60241.47;4995058;28;20589;-63
2023/12/23 07:02:11;;;;;;;1.53;1.43;;;;;;;3.98;nan;60242.53;4994931;28;20187;-64
2023/12/23 07:04:36;;;;;;;1.10;1.10;;;;;;;3.92;nan;60215.06;4994458;28;20584;-62
2023/12/23 07:07:02;;;;;;;1.00;1.00;;;;;;;4.45;nan;60319.28;4994687;28;20209;-65
2023/12/23 07:09:27;;;;;;;1.10;1.10;;;;;;;4.52;nan;60372.66;5009259;28;20177;-64
2023/12/23 07:11:53;;;;;;;1.23;1.23;;;;;;;3.92;nan;60300.94;4994548;28;20212;-64
2023/12/23 07:14:18;;;;;;;1.23;1.23;;;;;;;4.52;nan;60317.03;4992581;28;20245;-63
2023/12/23 07:16:43;;;;;;;1.53;1.40;;;;;;;4.76;nan;60336.31;4980811;28;20196;-63
2023/12/23 07:19:09;;;;;;;3.50;1.77;;;;;;;5.15;nan;60399.69;4986665;28;20177;-64
2023/12/23 07:21:35;;;;;;;1.53;1.40;;;;;;;5.08;nan;60355.84;4992958;28;20671;-66
2023/12/23 07:24:03;;;;;;;1.20;1.20;;;;;;;5.58;nan;60434.09;4993918;28;20183;-67
2023/12/23 07:26:34;;;;;;;1.67;1.57;;;;;;;5.44;nan;60420.94;4985945;28;20268;-66
2023/12/23 07:29:00;;;;;;;2.30;2.10;;;;;;;5.67;nan;60439.13;4993812;28;20307;-65
2023/12/23 07:31:26;;;;;;;1.60;1.50;;;;;;;5.58;nan;60424.53;4987535;28;20753;-65
2023/12/23 07:33:51;;;;;;;2.80;1.60;;;;;;;5.95;nan;60417.34;4991733;28;20187;-64
2023/12/23 07:36:17;;;;;;;1.47;1.37;;;;;;;5.81;nan;60451.75;4989892;28;20211;-63
2023/12/23 07:38:42;;;;;;;1.20;1.20;;;;;;;5.75;nan;60437.97;4993894;28;20200;-64
2023/12/23 07:41:08;;;;;;;1.87;1.77;;;;;;;6.20;nan;60462.53;4994062;28;20557;-65
2023/12/23 07:43:34;;;;;;;1.47;1.37;;;;;;;5.98;nan;60442.94;4987514;28;20566;-65
2023/12/23 07:45:59;;;;;;;1.40;1.30;;;;;;;6.12;nan;60469.34;4987375;28;20645;-69
2023/12/23 07:48:25;;;;;;;1.37;1.30;;;;;;;6.01;nan;60502.63;4993721;28;20196;-65
2023/12/23 07:50:50;;;;;;;3.70;1.60;;;;;;;6.38;nan;60482.19;4989520;28;20188;-65
2023/12/23 07:53:15;;;;;;;1.73;1.63;;;;;;;6.43;nan;60437.03;4986748;28;20204;-64
2023/12/23 07:55:43;;;;;;;1.50;1.40;;;;;;;6.57;nan;60526.88;4993565;28;20188;-65
2023/12/23 07:58:09;;;;;;;2.40;1.80;;;;;;;6.84;nan;60538.28;4993281;28;20268;-65
2023/12/23 08:00:34;;;;;;;1.90;1.80;;;;;;;6.82;nan;60541.69;4993182;28;20268;-64
2023/12/23 08:02:59;;;;;;;1.93;1.83;;;;;;;6.65;nan;60532.75;5008188;28;20590;-63
2023/12/23 08:05:25;;;;;;;3.57;2.60;;;;;;;6.18;nan;60471.00;4992008;28;20323;-63
2023/12/23 08:07:50;;;;;;;7.90;2.30;;;;;;;6.22;nan;60500.28;4993598;28;20311;-65
2023/12/23 08:10:17;;;;;;;1.90;1.80;;;;;;;6.20;nan;60492.97;4993537;28;20268;-64
2023/12/23 08:12:42;;;;;;;1.37;1.37;;;;;;;5.92;nan;60467.19;4992872;28;20543;-64
2023/12/23 08:15:15;;;;;;;1.73;1.63;;;;;;;6.17;nan;60505.38;5008110;28;20243;-64
2023/12/23 08:17:40;;;;;;;1.60;1.50;;;;;;;5.95;nan;60465.50;4993343;28;20177;-65
2023/12/23 08:20:06;;;;;;;1.43;1.33;;;;;;;6.22;nan;60465.34;4992943;28;20774;-65
2023/12/23 08:22:32;;;;;;;2.33;2.00;;;;;;;5.89;nan;60458.75;4993108;28;20653;-65
2023/12/23 08:24:58;;;;;;;1.60;1.50;;;;;;;6.03;nan;60479.53;4993241;28;20677;-64
2023/12/23 08:27:24;;;;;;;1.37;1.33;;;;;;;5.90;nan;60475.09;4992779;28;20192;-64
2023/12/23 08:29:49;;;;;;;1.73;1.67;;;;;;;5.98;nan;60458.72;4992961;28;20164;-65
2023/12/23 08:32:18;;;;;;;2.63;1.80;;;;;;;5.91;nan;60461.00;4991308;28;20231;-65
2023/12/23 08:34:46;;;;;;;1.50;1.40;;;;;;;6.43;nan;60508.63;4992914;28;20180;-62
2023/12/23 08:37:12;;;;;;;1.50;1.40;;;;;;;6.57;nan;60457.81;4992459;28;20640;-64
2023/12/23 08:39:37;;;;;;;2.20;1.80;;;;;;;6.67;nan;60509.63;4992805;28;20176;-64
2023/12/23 08:42:03;;;;;;;1.43;1.37;;;;;;;6.66;nan;60483.69;4992382;28;20262;-62
2023/12/23 08:44:28;;;;;;;1.93;1.83;;;;;;;6.97;nan;60578.28;4992690;28;20176;-65
2023/12/23 08:46:54;;;;;;;2.10;1.93;;;;;;;7.01;nan;60710.25;4992790;28;20256;-64
2023/12/23 08:49:19;;;;;;;1.73;1.63;;;;;;;7.40;nan;60547.25;5004125;28;20192;-66
2023/12/23 08:51:44;;;;;;;1.97;1.87;;;;;;;7.35;nan;60630.56;4979460;28;20570;-65
2023/12/23 08:54:12;;;;;;;2.00;1.90;;;;;;;7.55;nan;60569.72;4976951;28;20231;-63
2023/12/23 08:56:38;;;;;;;1.93;1.83;;;;;;;7.96;nan;60648.25;4981372;28;20185;-64
2023/12/23 08:59:03;;;;;;;3.27;2.13;;;;;;;7.78;nan;60602.03;4986323;28;20230;-63
2023/12/23 09:01:29;;;;;;;1.77;1.30;;;;;;;7.97;nan;60788.66;4981234;28;20268;-62
2023/12/23 09:03:55;;;;;;;1.93;1.73;;;;;;;8.17;nan;60801.03;4984793;28;20182;-66
2023/12/23 09:06:20;;;;;;;1.90;1.80;;;;;;;8.57;nan;60697.88;4992204;28;20714;-65
2023/12/23 09:08:45;;;;;;;4.30;1.77;;;;;;;8.71;nan;60726.34;4991996;28;20238;-65
2023/12/23 09:11:11;;;;;;;2.10;1.50;;;;;;;8.95;nan;60722.22;4991532;28;20184;-62
2023/12/23 09:13:37;;;;;;;2.38;1.63;;;;;;;9.03;nan;60794.34;4991588;28;20188;-63
2023/12/23 09:16:04;;;;;;;3.72;2.17;;;;;;;9.24;nan;60749.75;4988811;28;20296;-63
2023/12/23 09:18:30;;;;;;;2.10;1.90;;;;;;;9.74;nan;60820.16;4984695;28;20476;-65
2023/12/23 09:20:55;;;;;;;3.85;2.00;;;;;;;9.83;nan;60847.59;4985713;28;20247;-63
2023/12/23 09:23:21;;;;;;;1.40;1.30;;;;;;;10.27;nan;61019.13;4988637;28;20185;-66
2023/12/23 09:25:46;;;;;;;1.85;1.67;;;;;;;10.58;nan;60872.81;4987542;28;20678;-63
2023/12/23 09:28:13;;;;;;;1.63;1.52;;;;;;;10.66;nan;60871.59;4991663;28;20258;-64
2023/12/23 09:30:39;;;;;;;1.70;1.60;;;;;;;10.80;nan;60922.56;4991631;28;20235;-63
2023/12/23 09:33:05;;;;;;;1.35;1.25;;;;;;;11.25;nan;60952.25;4991934;28;20172;-62
2023/12/23 09:35:31;;;;;;;1.50;1.40;;;;;;;11.38;nan;60980.25;4990733;28;20184;-63
2023/12/23 09:37:57;;;;;;;1.67;1.58;;;;;;;11.47;nan;61062.00;4991696;28;20687;-64
2023/12/23 09:40:22;;;;;;;1.20;1.20;;;;;;;11.78;nan;61042.72;5006650;28;20173;-64
2023/12/23 09:42:48;;;;;;;1.23;1.17;;;;;;;11.94;nan;60991.09;4992164;28;20168;-62
2023/12/23 09:45:15;;;;;;;1.52;1.42;;;;;;;11.82;nan;60987.81;4989746;28;20660;-63
2023/12/23 09:47:41;;;;;;;1.15;1.15;;;;;;;12.34;nan;61063.81;4979707;28;20209;-63
2023/12/23 09:50:07;;;;;;;1.20;1.20;;;;;;;12.64;nan;61210.41;4991371;28;20209;-63
2023/12/23 09:52:33;;;;;;;1.10;1.10;;;;;;;13.11;nan;61137.38;4991722;28;20231;-63
2023/12/23 09:55:03;;;;;;;1.35;1.25;;;;;;;13.10;nan;61156.16;4991217;28;20180;-66
2023/12/23 09:57:30;;;;;;;1.95;1.70;;;;;;;13.04;nan;61121.19;4991599;28;20180;-62
2023/12/23 09:59:57;;;;;;;1.00;1.00;;;;;;;13.52;nan;61154.88;4991820;28;20177;-63
2023/12/23 10:02:22;;;;;;;1.30;1.23;;;;;;;13.23;nan;61153.47;4991846;28;20227;-65
2023/12/23 10:04:47;;;;;;;1.20;1.10;;;;;;;13.33;nan;61135.97;4990095;28;20180;-65
2023/12/23 10:07:15;;;;;;;1.00;1.00;;;;;;;13.49;nan;61125.84;4991410;28;20204;-64
2023/12/23 10:09:41;;;;;;;1.30;1.20;;;;;;;13.59;nan;61178.19;4991120;28;20214;-64
2023/12/23 10:12:06;;;;;;;1.20;1.20;;;;;;;13.81;nan;61217.88;4991821;28;20568;-64
2023/12/23 10:14:32;;;;;;;1.30;1.20;;;;;;;13.49;nan;61125.84;4991605;28;20243;-64
2023/12/23 10:16:57;;;;;;;1.85;1.20;;;;;;;13.38;nan;61138.50;4991354;28;20268;-63
2023/12/23 10:19:24;;;;;;;1.00;1.00;;;;;;;12.96;nan;61087.06;4991769;28;20173;-64
2023/12/23 10:21:50;;;;;;;1.98;1.80;;;;;;;13.00;nan;61142.31;4991501;28;20591;-63
2023/12/23 10:24:16;;;;;;;1.10;1.10;;;;;;;12.48;nan;61059.13;4992747;28;20624;-65
2023/12/23 10:26:42;;;;;;;1.80;1.55;;;;;;;12.50;nan;61024.94;4995256;28;20204;-65
2023/12/23 10:29:09;;;;;;;0.98;0.98;;;;;;;12.44;nan;61003.38;4995180;28;20612;-63
2023/12/23 10:31:36;;;;;;;1.00;1.00;;;;;;;12.41;nan;61071.72;4995048;28;20252;-64
2023/12/23 10:34:11;;;;;;;1.10;1.10;;;;;;;12.35;nan;61090.56;4993710;28;20247;-65
2023/12/23 10:36:40;;;;;;;1.23;1.23;;;;;;;12.58;nan;61064.69;5009862;28;20188;-62
2023/12/23 10:39:12;;;;;;;1.10;1.10;;;;;;;12.45;nan;61026.97;4982199;28;20716;-63
2023/12/23 10:41:50;;;;;;;1.02;1.00;;;;;;;12.25;nan;61043.97;4995229;28;20184;-66
2023/12/23 10:44:16;;;;;;;1.42;1.35;;;;;;;11.89;nan;61146.69;4994833;28;20192;-64
2023/12/23 10:46:43;;;;;;;1.83;1.60;;;;;;;11.85;nan;61014.78;4994626;28;20612;-64
2023/12/23 10:49:09;;;;;;;1.02;1.02;;;;;;;11.61;nan;60974.34;4994741;28;20299;-63
2023/12/23 10:51:34;;;;;;;1.00;1.00;;;;;;;11.51;nan;60953.97;4995101;28;20172;-63
2023/12/23 10:54:02;;;;;;;1.00;1.00;;;;;;;11.15;nan;61002.31;4994918;28;20633;-65
2023/12/23 10:56:29;;;;;;;1.25;1.20;;;;;;;11.23;nan;60904.00;4994682;28;20595;-62
2023/12/23 10:58:55;;;;;;;1.33;1.25;;;;;;;11.17;nan;60933.00;4994588;28;20252;-63
2023/12/23 11:01:24;;;;;;;1.10;1.10;;;;;;;10.71;nan;60871.53;5009303;28;20234;-64
2023/12/23 11:03:54;;;;;;;1.00;1.00;;;;;;;10.64;nan;60875.00;4993007;28;20264;-65
2023/12/23 11:06:20;;;;;;;1.00;1.00;;;;;;;10.45;nan;60871.47;4994561;28;20173;-64
2023/12/23 11:08:49;;;;;;;1.10;1.10;;;;;;;10.37;nan;60841.50;4994228;28;20205;-66
2023/12/23 11:11:15;;;;;;;1.10;1.10;;;;;;;10.43;nan;60879.44;4994199;28;20207;-63
2023/12/23 11:13:41;;;;;;;0.90;0.90;;;;;;;10.45;nan;60863.28;4994241;28;20294;-63
2023/12/23 11:16:10;;;;;;;1.20;1.20;;;;;;;10.26;nan;60993.03;4993846;28;20560;-65
2023/12/23 11:18:39;;;;;;;1.00;1.00;;;;;;;10.43;nan;60871.78;4994310;28;20218;-64
2023/12/23 11:21:15;;;;;;;1.10;1.10;;;;;;;10.11;nan;60840.84;4994057;28;20256;-64
2023/12/23 11:23:40;;;;;;;1.00;1.00;;;;;;;10.23;nan;60846.72;4994248;28;20176;-65
2023/12/23 11:26:37;;;;;;;1.00;1.00;;;;;;;10.46;nan;60869.50;4993811;28;20636;-65
2023/12/23 11:29:09;;;;;;;1.15;1.15;;;;;;;10.47;nan;60845.66;4994101;28;20558;-64
2023/12/23 11:31:34;;;;;;;0.90;0.90;;;;;;;10.50;nan;60859.22;4994049;28;20308;-66
2023/12/23 11:34:00;;;;;;;1.00;1.00;;;;;;;10.40;nan;60862.75;4993808;28;20326;-62
2023/12/23 11:36:26;;;;;;;1.00;1.00;;;;;;;10.51;nan;60862.34;4993203;28;20183;-65
2023/12/23 11:38:52;;;;;;;1.00;1.00;;;;;;;10.31;nan;60855.72;4993727;28;20251;-66
2023/12/23 11:41:19;;;;;;;1.10;1.10;;;;;;;10.50;nan;60891.88;4996099;28;20185;-65
2023/12/23 11:43:46;;;;;;;0.90;0.90;;;;;;;10.48;nan;60902.38;4992467;28;20176;-65
2023/12/23 11:46:13;;;;;;;0.95;0.95;;;;;;;10.16;nan;60833.75;4993448;28;20610;-67
2023/12/23 11:48:38;;;;;;;1.00;1.00;;;;;;;10.46;nan;60887.38;4993224;28;20200;-65
2023/12/23 11:51:06;;;;;;;1.05;1.05;;;;;;;10.27;nan;60825.13;4993513;28;20187;-65